This is the latest recevied weather packets stored in our database for station/object SQ5LTL-2. If no packets are shown the sender has not sent any weather packets the latest 10 day(s).
| Time | Temp. | Humidity | Pressure | Rain* | Wind** | Luminosity | Snow |
|---|---|---|---|---|---|---|---|
| 1777943128 | 10° C | 72% | 1012.5 hPa | 0 mm | - | 0 W/m² | - |
| 1777942825 | 10° C | 72% | 1012.6 hPa | 0 mm | - | 0 W/m² | - |
| 1777942222 | 11.11° C | 68% | 1012.7 hPa | 0 mm | - | 0 W/m² | - |
| 1777940735 | 12.22° C | 62% | 1012.6 hPa | 0 mm | - | 0 W/m² | - |
| 1777940433 | 12.22° C | 62% | 1012.7 hPa | 0 mm | - | 0 W/m² | - |
| 1777940132 | 12.22° C | 61% | 1012.6 hPa | 0 mm | - | 0 W/m² | - |
| 1777939830 | 12.22° C | 61% | 1012.7 hPa | 0 mm | - | 0 W/m² | - |
| 1777939529 | 12.78° C | 60% | 1012.7 hPa | 0 mm | - | 0 W/m² | - |
| 1777938926 | 12.78° C | 60% | 1012.8 hPa | 0 mm | - | 0 W/m² | - |
| 1777937419 | 11.67° C | 66% | 1012.8 hPa | 0 mm | - | 0 W/m² | - |
| 1777932334 | 12.78° C | 60% | 1013.2 hPa | 0 mm | - | 0 W/m² | - |
| 1777929018 | 12.78° C | 63% | 1013.1 hPa | 0 mm | - | 0 W/m² | - |
| 1777926626 | 11.67° C | 69% | 1013.1 hPa | 0 mm | - | 0 W/m² | - |
| 1777924516 | 12.78° C | 64% | 1013 hPa | 0 mm | - | 0 W/m² | - |
| 1777922727 | 13.89° C | 61% | 1013.1 hPa | 0 mm | - | 0 W/m² | - |
| 1777919129 | 16.11° C | 51% | 1012.8 hPa | 0 mm | - | 0 W/m² | - |
| 1777918829 | 16.67° C | 50% | 1012.8 hPa | 0 mm | - | 0 W/m² | - |
| 1777915532 | 23.33° C | 32% | 1012.4 hPa | 0 mm | - | 23 W/m² | - |
| 1777914024 | 23.89° C | 31% | 1012.4 hPa | 0 mm | - | 37 W/m² | - |
| 1777913120 | 24.44° C | 30% | 1012.5 hPa | 0 mm | - | 44 W/m² | - |
| 1777912517 | 25° C | 28% | 1012.5 hPa | 0 mm | - | 48 W/m² | - |
| 1777910427 | 26.11° C | 25% | 1012.5 hPa | 0 mm | - | 67 W/m² | - |
| 1777910125 | 26.11° C | 25% | 1012.5 hPa | 0 mm | - | 72 W/m² | - |
| 1777907130 | 27.22° C | 23% | 1012.6 hPa | 0 mm | - | 165 W/m² | - |
| 1777906529 | 27.78° C | 22% | 1012.8 hPa | 0 mm | - | 222 W/m² | - |
* Rain latest hour (hover to see other rain measurements)
** Current wind speed in m/s (hover to see current wind gust speed)